sensor_id;sensor_type;location;lat;lon;timestamp;P1;durP1;ratioP1;P2;durP2;ratioP2
43248;SDS011;29216;51.248;6.808;2023-03-31T00:01:32;8.23;;;2.55;;
43248;SDS011;29216;51.248;6.808;2023-03-31T00:03:58;9.90;;;2.85;;
43248;SDS011;29216;51.248;6.808;2023-03-31T00:06:30;6.75;;;2.50;;
43248;SDS011;29216;51.248;6.808;2023-03-31T00:09:06;9.23;;;2.88;;
43248;SDS011;29216;51.248;6.808;2023-03-31T00:11:33;7.72;;;2.50;;
43248;SDS011;29216;51.248;6.808;2023-03-31T00:13:59;8.68;;;2.40;;
43248;SDS011;29216;51.248;6.808;2023-03-31T00:16:25;9.77;;;2.33;;
43248;SDS011;29216;51.248;6.808;2023-03-31T00:18:51;4.53;;;2.25;;
43248;SDS011;29216;51.248;6.808;2023-03-31T00:21:18;4.65;;;2.83;;
43248;SDS011;29216;51.248;6.808;2023-03-31T00:24:16;9.40;;;2.70;;
43248;SDS011;29216;51.248;6.808;2023-03-31T00:26:42;4.43;;;1.92;;
43248;SDS011;29216;51.248;6.808;2023-03-31T00:29:08;5.70;;;2.28;;
43248;SDS011;29216;51.248;6.808;2023-03-31T00:31:36;6.53;;;2.10;;
43248;SDS011;29216;51.248;6.808;2023-03-31T00:34:03;6.30;;;2.08;;
43248;SDS011;29216;51.248;6.808;2023-03-31T00:36:29;6.60;;;2.20;;
43248;SDS011;29216;51.248;6.808;2023-03-31T00:38:56;4.95;;;2.03;;
43248;SDS011;29216;51.248;6.808;2023-03-31T00:41:24;8.38;;;2.50;;
43248;SDS011;29216;51.248;6.808;2023-03-31T00:49:13;5.63;;;2.05;;
43248;SDS011;29216;51.248;6.808;2023-03-31T00:51:51;3.75;;;1.92;;
43248;SDS011;29216;51.248;6.808;2023-03-31T00:54:20;6.57;;;2.63;;
43248;SDS011;29216;51.248;6.808;2023-03-31T00:56:49;10.27;;;2.70;;
43248;SDS011;29216;51.248;6.808;2023-03-31T00:59:19;3.85;;;2.10;;
43248;SDS011;29216;51.248;6.808;2023-03-31T01:01:51;5.25;;;1.92;;
43248;SDS011;29216;51.248;6.808;2023-03-31T01:04:23;7.15;;;2.35;;
43248;SDS011;29216;51.248;6.808;2023-03-31T01:06:57;4.50;;;2.45;;
43248;SDS011;29216;51.248;6.808;2023-03-31T01:09:40;6.53;;;2.53;;
43248;SDS011;29216;51.248;6.808;2023-03-31T01:12:11;4.90;;;2.20;;
43248;SDS011;29216;51.248;6.808;2023-03-31T01:14:39;6.13;;;2.05;;
43248;SDS011;29216;51.248;6.808;2023-03-31T01:17:05;7.22;;;2.40;;
43248;SDS011;29216;51.248;6.808;2023-03-31T01:25:02;6.18;;;2.33;;
43248;SDS011;29216;51.248;6.808;2023-03-31T01:28:13;9.15;;;2.60;;
43248;SDS011;29216;51.248;6.808;2023-03-31T01:33:21;5.03;;;2.15;;
43248;SDS011;29216;51.248;6.808;2023-03-31T01:41:45;5.53;;;1.90;;
43248;SDS011;29216;51.248;6.808;2023-03-31T01:52:48;6.28;;;2.10;;
43248;SDS011;29216;51.248;6.808;2023-03-31T01:55:40;5.80;;;2.20;;
43248;SDS011;29216;51.248;6.808;2023-03-31T02:00:55;9.05;;;2.78;;
43248;SDS011;29216;51.248;6.808;2023-03-31T02:03:27;10.23;;;2.60;;
43248;SDS011;29216;51.248;6.808;2023-03-31T02:05:57;7.35;;;2.05;;
43248;SDS011;29216;51.248;6.808;2023-03-31T02:11:17;6.35;;;1.95;;
43248;SDS011;29216;51.248;6.808;2023-03-31T02:13:44;8.57;;;2.58;;
43248;SDS011;29216;51.248;6.808;2023-03-31T02:16:13;13.15;;;2.80;;
43248;SDS011;29216;51.248;6.808;2023-03-31T02:18:43;10.68;;;2.63;;
43248;SDS011;29216;51.248;6.808;2023-03-31T02:21:12;11.23;;;2.85;;
43248;SDS011;29216;51.248;6.808;2023-03-31T02:23:40;5.03;;;2.03;;
43248;SDS011;29216;51.248;6.808;2023-03-31T02:26:09;8.05;;;2.35;;
43248;SDS011;29216;51.248;6.808;2023-03-31T02:28:51;9.65;;;2.75;;
43248;SDS011;29216;51.248;6.808;2023-03-31T02:31:28;7.90;;;2.50;;
43248;SDS011;29216;51.248;6.808;2023-03-31T02:34:11;8.30;;;2.92;;
43248;SDS011;29216;51.248;6.808;2023-03-31T02:36:37;10.27;;;2.72;;
43248;SDS011;29216;51.248;6.808;2023-03-31T02:39:07;12.25;;;3.33;;
43248;SDS011;29216;51.248;6.808;2023-03-31T02:41:35;12.63;;;3.15;;
43248;SDS011;29216;51.248;6.808;2023-03-31T02:44:02;17.20;;;3.38;;
43248;SDS011;29216;51.248;6.808;2023-03-31T02:46:28;10.30;;;3.08;;
43248;SDS011;29216;51.248;6.808;2023-03-31T02:48:56;10.93;;;2.97;;
43248;SDS011;29216;51.248;6.808;2023-03-31T02:56:38;12.25;;;2.65;;
43248;SDS011;29216;51.248;6.808;2023-03-31T03:02:17;11.60;;;3.35;;
43248;SDS011;29216;51.248;6.808;2023-03-31T03:05:01;11.55;;;2.78;;
43248;SDS011;29216;51.248;6.808;2023-03-31T03:16:32;11.05;;;2.78;;
43248;SDS011;29216;51.248;6.808;2023-03-31T03:19:04;11.88;;;3.45;;
43248;SDS011;29216;51.248;6.808;2023-03-31T03:21:31;15.73;;;2.72;;
43248;SDS011;29216;51.248;6.808;2023-03-31T03:23:57;18.23;;;3.25;;
43248;SDS011;29216;51.248;6.808;2023-03-31T03:26:24;8.85;;;3.08;;
43248;SDS011;29216;51.248;6.808;2023-03-31T03:28:52;16.65;;;3.70;;
43248;SDS011;29216;51.248;6.808;2023-03-31T03:31:20;16.02;;;3.30;;
43248;SDS011;29216;51.248;6.808;2023-03-31T03:33:48;10.38;;;2.60;;
43248;SDS011;29216;51.248;6.808;2023-03-31T03:36:14;11.77;;;3.03;;
43248;SDS011;29216;51.248;6.808;2023-03-31T03:38:40;14.70;;;2.88;;
43248;SDS011;29216;51.248;6.808;2023-03-31T03:41:06;11.80;;;4.05;;
43248;SDS011;29216;51.248;6.808;2023-03-31T03:43:31;13.45;;;2.70;;
43248;SDS011;29216;51.248;6.808;2023-03-31T03:45:57;13.48;;;3.35;;
43248;SDS011;29216;51.248;6.808;2023-03-31T03:48:23;18.38;;;3.53;;
43248;SDS011;29216;51.248;6.808;2023-03-31T03:50:49;10.13;;;2.40;;
43248;SDS011;29216;51.248;6.808;2023-03-31T03:53:15;11.15;;;2.67;;
43248;SDS011;29216;51.248;6.808;2023-03-31T03:55:41;8.75;;;2.88;;
43248;SDS011;29216;51.248;6.808;2023-03-31T03:58:06;6.93;;;2.50;;
43248;SDS011;29216;51.248;6.808;2023-03-31T04:00:32;6.90;;;3.10;;
43248;SDS011;29216;51.248;6.808;2023-03-31T04:02:58;7.97;;;2.50;;
43248;SDS011;29216;51.248;6.808;2023-03-31T04:05:24;15.27;;;3.95;;
43248;SDS011;29216;51.248;6.808;2023-03-31T04:07:49;9.93;;;2.95;;
43248;SDS011;29216;51.248;6.808;2023-03-31T04:10:15;9.05;;;2.42;;
43248;SDS011;29216;51.248;6.808;2023-03-31T04:12:41;14.75;;;3.00;;
43248;SDS011;29216;51.248;6.808;2023-03-31T04:15:06;17.88;;;3.33;;
43248;SDS011;29216;51.248;6.808;2023-03-31T04:17:32;13.93;;;3.10;;
43248;SDS011;29216;51.248;6.808;2023-03-31T04:20:17;23.42;;;3.83;;
43248;SDS011;29216;51.248;6.808;2023-03-31T04:22:42;15.20;;;3.72;;
43248;SDS011;29216;51.248;6.808;2023-03-31T04:25:11;10.93;;;3.25;;
43248;SDS011;29216;51.248;6.808;2023-03-31T04:27:44;9.52;;;3.13;;
43248;SDS011;29216;51.248;6.808;2023-03-31T04:30:14;11.50;;;3.15;;
43248;SDS011;29216;51.248;6.808;2023-03-31T04:32:47;12.30;;;3.13;;
43248;SDS011;29216;51.248;6.808;2023-03-31T04:35:14;11.93;;;3.40;;
43248;SDS011;29216;51.248;6.808;2023-03-31T04:37:43;11.43;;;2.80;;
43248;SDS011;29216;51.248;6.808;2023-03-31T04:40:08;6.28;;;2.78;;
43248;SDS011;29216;51.248;6.808;2023-03-31T04:42:35;9.77;;;3.35;;
43248;SDS011;29216;51.248;6.808;2023-03-31T04:45:01;10.15;;;3.65;;
43248;SDS011;29216;51.248;6.808;2023-03-31T04:47:27;12.48;;;3.28;;
43248;SDS011;29216;51.248;6.808;2023-03-31T04:49:53;10.80;;;3.75;;
43248;SDS011;29216;51.248;6.808;2023-03-31T04:52:18;13.30;;;3.70;;
43248;SDS011;29216;51.248;6.808;2023-03-31T04:54:45;9.00;;;2.90;;
43248;SDS011;29216;51.248;6.808;2023-03-31T04:57:10;6.78;;;2.90;;
43248;SDS011;29216;51.248;6.808;2023-03-31T04:59:36;9.77;;;2.90;;
43248;SDS011;29216;51.248;6.808;2023-03-31T05:02:01;9.88;;;2.85;;
43248;SDS011;29216;51.248;6.808;2023-03-31T05:04:27;7.10;;;2.58;;
43248;SDS011;29216;51.248;6.808;2023-03-31T05:06:52;10.07;;;2.95;;
43248;SDS011;29216;51.248;6.808;2023-03-31T05:09:18;8.02;;;2.63;;
43248;SDS011;29216;51.248;6.808;2023-03-31T05:11:44;6.63;;;2.50;;
43248;SDS011;29216;51.248;6.808;2023-03-31T05:14:10;5.40;;;2.50;;
43248;SDS011;29216;51.248;6.808;2023-03-31T05:16:36;7.45;;;2.30;;
43248;SDS011;29216;51.248;6.808;2023-03-31T05:19:01;7.68;;;2.38;;
43248;SDS011;29216;51.248;6.808;2023-03-31T05:21:27;11.10;;;3.40;;
43248;SDS011;29216;51.248;6.808;2023-03-31T05:23:54;8.75;;;2.20;;
43248;SDS011;29216;51.248;6.808;2023-03-31T05:26:20;5.88;;;2.10;;
43248;SDS011;29216;51.248;6.808;2023-03-31T05:28:49;6.47;;;2.63;;
43248;SDS011;29216;51.248;6.808;2023-03-31T05:31:15;7.10;;;2.25;;
43248;SDS011;29216;51.248;6.808;2023-03-31T05:33:42;7.47;;;2.45;;
43248;SDS011;29216;51.248;6.808;2023-03-31T05:36:08;9.05;;;2.60;;
43248;SDS011;29216;51.248;6.808;2023-03-31T05:38:39;10.60;;;2.63;;
43248;SDS011;29216;51.248;6.808;2023-03-31T05:41:05;10.65;;;3.70;;
43248;SDS011;29216;51.248;6.808;2023-03-31T05:43:33;10.43;;;3.60;;
43248;SDS011;29216;51.248;6.808;2023-03-31T05:45:59;10.13;;;2.55;;
43248;SDS011;29216;51.248;6.808;2023-03-31T05:48:25;9.95;;;2.95;;
43248;SDS011;29216;51.248;6.808;2023-03-31T05:50:50;9.00;;;3.45;;
43248;SDS011;29216;51.248;6.808;2023-03-31T05:53:19;13.73;;;3.15;;
43248;SDS011;29216;51.248;6.808;2023-03-31T05:55:45;11.05;;;4.03;;
43248;SDS011;29216;51.248;6.808;2023-03-31T05:58:11;11.13;;;3.25;;
43248;SDS011;29216;51.248;6.808;2023-03-31T06:00:36;7.07;;;2.95;;
43248;SDS011;29216;51.248;6.808;2023-03-31T06:03:02;7.05;;;3.42;;
43248;SDS011;29216;51.248;6.808;2023-03-31T06:05:27;7.57;;;2.92;;
43248;SDS011;29216;51.248;6.808;2023-03-31T06:07:55;12.38;;;3.35;;
43248;SDS011;29216;51.248;6.808;2023-03-31T06:10:20;8.13;;;3.03;;
43248;SDS011;29216;51.248;6.808;2023-03-31T06:12:46;9.07;;;2.85;;
43248;SDS011;29216;51.248;6.808;2023-03-31T06:15:11;9.13;;;3.33;;
43248;SDS011;29216;51.248;6.808;2023-03-31T06:17:37;9.48;;;3.08;;
43248;SDS011;29216;51.248;6.808;2023-03-31T06:20:03;9.15;;;2.97;;
43248;SDS011;29216;51.248;6.808;2023-03-31T06:22:30;6.97;;;2.40;;
43248;SDS011;29216;51.248;6.808;2023-03-31T06:24:56;11.20;;;2.83;;
43248;SDS011;29216;51.248;6.808;2023-03-31T06:27:21;9.93;;;3.88;;
43248;SDS011;29216;51.248;6.808;2023-03-31T06:29:47;10.05;;;2.60;;
43248;SDS011;29216;51.248;6.808;2023-03-31T06:32:14;9.07;;;2.63;;
43248;SDS011;29216;51.248;6.808;2023-03-31T06:34:40;6.15;;;2.80;;
43248;SDS011;29216;51.248;6.808;2023-03-31T06:37:05;10.68;;;3.08;;
43248;SDS011;29216;51.248;6.808;2023-03-31T06:39:31;8.55;;;2.83;;
43248;SDS011;29216;51.248;6.808;2023-03-31T06:41:57;4.70;;;2.95;;
43248;SDS011;29216;51.248;6.808;2023-03-31T06:44:22;10.13;;;2.97;;
43248;SDS011;29216;51.248;6.808;2023-03-31T06:46:48;7.50;;;2.85;;
43248;SDS011;29216;51.248;6.808;2023-03-31T06:49:14;8.23;;;2.90;;
43248;SDS011;29216;51.248;6.808;2023-03-31T06:51:40;4.20;;;2.35;;
43248;SDS011;29216;51.248;6.808;2023-03-31T06:54:05;7.00;;;2.65;;
43248;SDS011;29216;51.248;6.808;2023-03-31T06:56:31;10.38;;;2.95;;
43248;SDS011;29216;51.248;6.808;2023-03-31T06:58:57;4.80;;;2.20;;
43248;SDS011;29216;51.248;6.808;2023-03-31T07:01:23;6.05;;;2.10;;
43248;SDS011;29216;51.248;6.808;2023-03-31T07:03:48;6.22;;;2.33;;
43248;SDS011;29216;51.248;6.808;2023-03-31T07:06:14;6.38;;;2.78;;
43248;SDS011;29216;51.248;6.808;2023-03-31T07:08:40;6.93;;;2.33;;
43248;SDS011;29216;51.248;6.808;2023-03-31T07:11:05;5.15;;;2.50;;
43248;SDS011;29216;51.248;6.808;2023-03-31T07:13:32;8.65;;;2.42;;
43248;SDS011;29216;51.248;6.808;2023-03-31T07:15:57;5.25;;;2.60;;
43248;SDS011;29216;51.248;6.808;2023-03-31T07:18:23;4.45;;;2.05;;
43248;SDS011;29216;51.248;6.808;2023-03-31T07:20:50;2.80;;;1.70;;
43248;SDS011;29216;51.248;6.808;2023-03-31T07:23:16;3.55;;;2.55;;
43248;SDS011;29216;51.248;6.808;2023-03-31T07:25:42;5.30;;;1.83;;
43248;SDS011;29216;51.248;6.808;2023-03-31T07:28:09;5.13;;;2.35;;
43248;SDS011;29216;51.248;6.808;2023-03-31T07:30:38;6.68;;;2.30;;
43248;SDS011;29216;51.248;6.808;2023-03-31T07:33:05;2.58;;;2.30;;
43248;SDS011;29216;51.248;6.808;2023-03-31T07:35:31;6.18;;;2.00;;
43248;SDS011;29216;51.248;6.808;2023-03-31T07:37:56;4.63;;;1.80;;
43248;SDS011;29216;51.248;6.808;2023-03-31T07:40:24;2.67;;;1.92;;
43248;SDS011;29216;51.248;6.808;2023-03-31T07:42:51;3.42;;;1.77;;
43248;SDS011;29216;51.248;6.808;2023-03-31T07:45:18;5.70;;;2.53;;
43248;SDS011;29216;51.248;6.808;2023-03-31T07:47:45;2.15;;;1.55;;
43248;SDS011;29216;51.248;6.808;2023-03-31T07:50:11;2.47;;;1.85;;
43248;SDS011;29216;51.248;6.808;2023-03-31T07:52:39;4.82;;;1.83;;
43248;SDS011;29216;51.248;6.808;2023-03-31T07:55:05;4.00;;;1.70;;
43248;SDS011;29216;51.248;6.808;2023-03-31T07:57:31;4.25;;;2.10;;
43248;SDS011;29216;51.248;6.808;2023-03-31T07:59:57;5.05;;;1.85;;
43248;SDS011;29216;51.248;6.808;2023-03-31T08:02:23;3.58;;;1.67;;
43248;SDS011;29216;51.248;6.808;2023-03-31T08:04:48;3.05;;;1.50;;
43248;SDS011;29216;51.248;6.808;2023-03-31T08:07:15;4.10;;;1.70;;
43248;SDS011;29216;51.248;6.808;2023-03-31T08:09:42;2.75;;;1.60;;
43248;SDS011;29216;51.248;6.808;2023-03-31T08:12:09;4.13;;;2.75;;
43248;SDS011;29216;51.248;6.808;2023-03-31T08:14:35;2.78;;;1.80;;
43248;SDS011;29216;51.248;6.808;2023-03-31T08:17:01;2.08;;;1.40;;
43248;SDS011;29216;51.248;6.808;2023-03-31T08:19:27;3.05;;;1.70;;
43248;SDS011;29216;51.248;6.808;2023-03-31T08:21:53;3.65;;;1.90;;
43248;SDS011;29216;51.248;6.808;2023-03-31T08:24:19;1.52;;;1.33;;
43248;SDS011;29216;51.248;6.808;2023-03-31T08:26:45;3.08;;;1.77;;
43248;SDS011;29216;51.248;6.808;2023-03-31T08:29:10;4.70;;;1.70;;
43248;SDS011;29216;51.248;6.808;2023-03-31T08:31:37;3.00;;;1.52;;
43248;SDS011;29216;51.248;6.808;2023-03-31T08:34:03;1.95;;;1.60;;
43248;SDS011;29216;51.248;6.808;2023-03-31T08:36:29;3.80;;;1.80;;
43248;SDS011;29216;51.248;6.808;2023-03-31T08:38:55;11.25;;;2.28;;
43248;SDS011;29216;51.248;6.808;2023-03-31T08:44:10;4.35;;;2.05;;
43248;SDS011;29216;51.248;6.808;2023-03-31T08:46:40;5.05;;;2.10;;
43248;SDS011;29216;51.248;6.808;2023-03-31T08:49:08;7.90;;;2.33;;
43248;SDS011;29216;51.248;6.808;2023-03-31T08:51:45;7.22;;;2.03;;
43248;SDS011;29216;51.248;6.808;2023-03-31T08:57:23;7.53;;;2.40;;
43248;SDS011;29216;51.248;6.808;2023-03-31T08:59:51;6.25;;;2.30;;
43248;SDS011;29216;51.248;6.808;2023-03-31T09:02:36;7.78;;;2.55;;
43248;SDS011;29216;51.248;6.808;2023-03-31T09:15:58;9.23;;;3.25;;
43248;SDS011;29216;51.248;6.808;2023-03-31T09:18:34;8.15;;;2.53;;
43248;SDS011;29216;51.248;6.808;2023-03-31T09:26:19;11.43;;;2.70;;
43248;SDS011;29216;51.248;6.808;2023-03-31T09:28:53;7.13;;;2.60;;
43248;SDS011;29216;51.248;6.808;2023-03-31T09:31:23;7.50;;;2.63;;
43248;SDS011;29216;51.248;6.808;2023-03-31T09:33:49;9.43;;;2.70;;
43248;SDS011;29216;51.248;6.808;2023-03-31T09:36:22;11.57;;;3.13;;
43248;SDS011;29216;51.248;6.808;2023-03-31T09:38:48;10.60;;;3.15;;
43248;SDS011;29216;51.248;6.808;2023-03-31T09:41:17;11.40;;;2.85;;
43248;SDS011;29216;51.248;6.808;2023-03-31T09:43:43;8.77;;;2.60;;
43248;SDS011;29216;51.248;6.808;2023-03-31T09:46:32;11.25;;;2.67;;
43248;SDS011;29216;51.248;6.808;2023-03-31T09:49:13;10.63;;;2.58;;
43248;SDS011;29216;51.248;6.808;2023-03-31T09:51:43;13.60;;;2.95;;
43248;SDS011;29216;51.248;6.808;2023-03-31T09:54:22;7.00;;;2.42;;
43248;SDS011;29216;51.248;6.808;2023-03-31T09:57:13;7.80;;;2.92;;
43248;SDS011;29216;51.248;6.808;2023-03-31T09:59:50;7.80;;;2.50;;
43248;SDS011;29216;51.248;6.808;2023-03-31T10:04:44;8.60;;;2.35;;
43248;SDS011;29216;51.248;6.808;2023-03-31T10:07:10;10.43;;;2.83;;
43248;SDS011;29216;51.248;6.808;2023-03-31T10:09:47;8.70;;;2.95;;
43248;SDS011;29216;51.248;6.808;2023-03-31T10:12:18;10.80;;;4.03;;
43248;SDS011;29216;51.248;6.808;2023-03-31T10:14:49;12.80;;;3.17;;
43248;SDS011;29216;51.248;6.808;2023-03-31T10:17:23;9.65;;;3.05;;
43248;SDS011;29216;51.248;6.808;2023-03-31T10:24:47;10.93;;;3.90;;
43248;SDS011;29216;51.248;6.808;2023-03-31T10:30:03;10.13;;;3.30;;
43248;SDS011;29216;51.248;6.808;2023-03-31T10:32:41;8.25;;;2.35;;
43248;SDS011;29216;51.248;6.808;2023-03-31T10:35:15;14.70;;;3.80;;
43248;SDS011;29216;51.248;6.808;2023-03-31T10:37:43;10.70;;;3.00;;
43248;SDS011;29216;51.248;6.808;2023-03-31T10:40:17;11.00;;;2.55;;
43248;SDS011;29216;51.248;6.808;2023-03-31T10:42:46;8.63;;;2.88;;
43248;SDS011;29216;51.248;6.808;2023-03-31T10:47:48;7.72;;;2.80;;
43248;SDS011;29216;51.248;6.808;2023-03-31T10:50:16;8.00;;;3.58;;
43248;SDS011;29216;51.248;6.808;2023-03-31T10:52:46;9.60;;;3.00;;
43248;SDS011;29216;51.248;6.808;2023-03-31T10:55:21;13.90;;;3.45;;
43248;SDS011;29216;51.248;6.808;2023-03-31T10:57:55;9.77;;;2.42;;
43248;SDS011;29216;51.248;6.808;2023-03-31T11:00:29;5.55;;;1.83;;
43248;SDS011;29216;51.248;6.808;2023-03-31T11:03:08;6.47;;;2.00;;
43248;SDS011;29216;51.248;6.808;2023-03-31T11:05:55;4.00;;;1.70;;
43248;SDS011;29216;51.248;6.808;2023-03-31T11:16:43;7.10;;;1.85;;
43248;SDS011;29216;51.248;6.808;2023-03-31T11:22:30;3.77;;;2.00;;
43248;SDS011;29216;51.248;6.808;2023-03-31T11:31:02;6.65;;;1.90;;
43248;SDS011;29216;51.248;6.808;2023-03-31T11:39:54;3.72;;;1.50;;
43248;SDS011;29216;51.248;6.808;2023-03-31T11:42:50;5.18;;;1.88;;
43248;SDS011;29216;51.248;6.808;2023-03-31T11:45:26;6.13;;;2.13;;
43248;SDS011;29216;51.248;6.808;2023-03-31T11:47:56;5.28;;;1.85;;
43248;SDS011;29216;51.248;6.808;2023-03-31T11:50:28;4.55;;;2.40;;
43248;SDS011;29216;51.248;6.808;2023-03-31T11:53:01;6.47;;;1.95;;
43248;SDS011;29216;51.248;6.808;2023-03-31T11:55:31;5.88;;;2.63;;
43248;SDS011;29216;51.248;6.808;2023-03-31T11:58:01;9.32;;;2.50;;
43248;SDS011;29216;51.248;6.808;2023-03-31T12:00:32;7.72;;;2.88;;
43248;SDS011;29216;51.248;6.808;2023-03-31T12:06:12;4.72;;;1.90;;
43248;SDS011;29216;51.248;6.808;2023-03-31T12:08:49;5.03;;;2.20;;
43248;SDS011;29216;51.248;6.808;2023-03-31T12:11:35;7.95;;;2.80;;
43248;SDS011;29216;51.248;6.808;2023-03-31T12:14:12;7.13;;;2.65;;
43248;SDS011;29216;51.248;6.808;2023-03-31T12:17:00;12.60;;;2.67;;
43248;SDS011;29216;51.248;6.808;2023-03-31T12:22:26;7.40;;;2.58;;
43248;SDS011;29216;51.248;6.808;2023-03-31T12:24:53;11.05;;;3.10;;
43248;SDS011;29216;51.248;6.808;2023-03-31T12:27:21;13.85;;;4.55;;
43248;SDS011;29216;51.248;6.808;2023-03-31T12:32:23;12.05;;;3.45;;
43248;SDS011;29216;51.248;6.808;2023-03-31T12:35:03;11.82;;;2.63;;
43248;SDS011;29216;51.248;6.808;2023-03-31T12:43:20;12.82;;;2.95;;
43248;SDS011;29216;51.248;6.808;2023-03-31T13:04:40;9.82;;;2.70;;
43248;SDS011;29216;51.248;6.808;2023-03-31T13:07:51;7.13;;;2.42;;
43248;SDS011;29216;51.248;6.808;2023-03-31T13:09:56;8.77;;;2.97;;
43248;SDS011;29216;51.248;6.808;2023-03-31T13:12:25;8.35;;;2.55;;
43248;SDS011;29216;51.248;6.808;2023-03-31T13:14:54;12.27;;;3.53;;
43248;SDS011;29216;51.248;6.808;2023-03-31T13:17:34;7.43;;;2.28;;
43248;SDS011;29216;51.248;6.808;2023-03-31T13:33:19;8.68;;;2.10;;
43248;SDS011;29216;51.248;6.808;2023-03-31T13:36:44;6.20;;;2.22;;
43248;SDS011;29216;51.248;6.808;2023-03-31T13:52:23;10.52;;;2.38;;
43248;SDS011;29216;51.248;6.808;2023-03-31T14:06:00;10.35;;;2.33;;
43248;SDS011;29216;51.248;6.808;2023-03-31T14:08:51;6.68;;;2.80;;
43248;SDS011;29216;51.248;6.808;2023-03-31T14:11:24;7.97;;;2.67;;
43248;SDS011;29216;51.248;6.808;2023-03-31T14:13:59;5.30;;;2.78;;
43248;SDS011;29216;51.248;6.808;2023-03-31T14:16:32;5.70;;;1.95;;
43248;SDS011;29216;51.248;6.808;2023-03-31T14:19:12;5.70;;;2.00;;
43248;SDS011;29216;51.248;6.808;2023-03-31T14:30:28;9.00;;;1.67;;
43248;SDS011;29216;51.248;6.808;2023-03-31T14:33:05;5.10;;;1.90;;
43248;SDS011;29216;51.248;6.808;2023-03-31T14:38:20;7.25;;;2.20;;
43248;SDS011;29216;51.248;6.808;2023-03-31T14:40:48;7.20;;;2.00;;
43248;SDS011;29216;51.248;6.808;2023-03-31T14:43:22;3.50;;;1.83;;
43248;SDS011;29216;51.248;6.808;2023-03-31T14:45:56;5.05;;;2.20;;
43248;SDS011;29216;51.248;6.808;2023-03-31T14:48:34;5.72;;;2.00;;
43248;SDS011;29216;51.248;6.808;2023-03-31T14:51:09;8.85;;;1.90;;
43248;SDS011;29216;51.248;6.808;2023-03-31T14:53:35;3.33;;;1.80;;
43248;SDS011;29216;51.248;6.808;2023-03-31T14:56:11;6.93;;;2.00;;
43248;SDS011;29216;51.248;6.808;2023-03-31T15:01:17;8.82;;;2.72;;
43248;SDS011;29216;51.248;6.808;2023-03-31T15:03:47;10.75;;;2.53;;
43248;SDS011;29216;51.248;6.808;2023-03-31T15:06:14;7.75;;;2.17;;
43248;SDS011;29216;51.248;6.808;2023-03-31T15:08:40;8.07;;;2.20;;
43248;SDS011;29216;51.248;6.808;2023-03-31T15:11:11;7.35;;;2.67;;
43248;SDS011;29216;51.248;6.808;2023-03-31T15:13:42;11.20;;;2.35;;
43248;SDS011;29216;51.248;6.808;2023-03-31T15:19:13;10.35;;;2.70;;
43248;SDS011;29216;51.248;6.808;2023-03-31T15:21:55;9.37;;;2.47;;
43248;SDS011;29216;51.248;6.808;2023-03-31T15:24:25;9.57;;;2.20;;
